createdAt,value
2023-12-12T00:00:58.895Z,1369.00
2023-12-12T00:01:58.852Z,1369.00
2023-12-12T00:02:58.805Z,1369.00
2023-12-12T00:03:58.754Z,1369.00
2023-12-12T00:04:58.615Z,1373.00
2023-12-12T00:05:58.675Z,1370.00
2023-12-12T00:06:58.605Z,1366.00
2023-12-12T00:07:58.434Z,1365.00
2023-12-12T00:08:58.368Z,1364.00
2023-12-12T00:09:58.327Z,1362.00
2023-12-12T00:10:58.276Z,1361.00
2023-12-12T00:11:58.196Z,1360.00
2023-12-12T00:12:58.130Z,1357.00
2023-12-12T00:13:58.067Z,1355.00
2023-12-12T00:14:58.009Z,1355.00
2023-12-12T00:15:58.014Z,1351.00
2023-12-12T00:16:57.885Z,1348.00
2023-12-12T00:17:57.863Z,1348.00
2023-12-12T00:18:57.863Z,1348.00
2023-12-12T00:19:57.705Z,1349.00
2023-12-12T00:20:57.633Z,1347.00
2023-12-12T00:21:57.589Z,1346.00
2023-12-12T00:22:57.526Z,1345.00
2023-12-12T00:23:57.440Z,1344.00
2023-12-12T00:24:57.390Z,1341.00
2023-12-12T00:25:57.318Z,1339.00
2023-12-12T00:26:57.286Z,1340.00
2023-12-12T00:27:57.302Z,1338.00
2023-12-12T00:28:57.156Z,1334.00
2023-12-12T00:29:57.064Z,1329.00
2023-12-12T00:30:57.055Z,1330.00
2023-12-12T00:31:56.936Z,1328.00
2023-12-12T00:32:56.904Z,1325.00
2023-12-12T00:33:56.923Z,1324.00
2023-12-12T00:34:56.817Z,1323.00
2023-12-12T00:35:56.727Z,1323.00
2023-12-12T00:36:56.755Z,1318.00
2023-12-12T00:37:56.631Z,1318.00
2023-12-12T00:38:56.547Z,1318.00
2023-12-12T00:39:56.505Z,1317.00
2023-12-12T00:40:56.419Z,1315.00
2023-12-12T00:41:56.354Z,1315.00
2023-12-12T00:42:56.370Z,1313.00
2023-12-12T00:43:56.238Z,1310.00
2023-12-12T00:44:56.185Z,1311.00
2023-12-12T00:45:56.133Z,1308.00
2023-12-12T00:46:56.093Z,1302.00
2023-12-12T00:47:56.086Z,1297.00
2023-12-12T00:48:56.118Z,1296.00
2023-12-12T00:49:55.972Z,1293.00
2023-12-12T00:50:55.864Z,1289.00
2023-12-12T00:52:05.834Z,1287.00
2023-12-12T00:52:55.753Z,1290.00
2023-12-12T00:53:55.699Z,1292.00
2023-12-12T00:54:55.647Z,1291.00
2023-12-12T00:55:55.566Z,1290.00
2023-12-12T00:56:55.576Z,1290.00
2023-12-12T00:57:55.490Z,1288.00
2023-12-12T00:58:55.399Z,1285.00
2023-12-12T00:59:55.357Z,1281.00
2023-12-12T01:00:55.390Z,1279.00
2023-12-12T01:01:55.266Z,1282.00
2023-12-12T01:02:55.178Z,1284.00
2023-12-12T01:03:55.191Z,1284.00
2023-12-12T01:04:55.153Z,1284.00
2023-12-12T01:05:55.085Z,1281.00
2023-12-12T01:06:54.937Z,1276.00
2023-12-12T01:07:54.909Z,1275.00
2023-12-12T01:08:54.829Z,1272.00
2023-12-12T01:09:54.782Z,1270.00
2023-12-12T01:10:54.712Z,1269.00
2023-12-12T01:11:54.675Z,1268.00
2023-12-12T01:12:54.655Z,1269.00
2023-12-12T01:13:54.536Z,1265.00
2023-12-12T01:14:54.458Z,1266.00
2023-12-12T01:15:54.426Z,1265.00
2023-12-12T01:16:54.354Z,1265.00
2023-12-12T01:17:54.435Z,1262.00
2023-12-12T01:18:54.307Z,1264.00
2023-12-12T01:19:54.242Z,1267.00
2023-12-12T01:20:54.122Z,1268.00
2023-12-12T01:21:54.128Z,1264.00
2023-12-12T01:22:54.032Z,1261.00
2023-12-12T01:23:53.994Z,1259.00
2023-12-12T01:24:53.955Z,1255.00
2023-12-12T01:25:53.857Z,1255.00
2023-12-12T01:26:53.797Z,1255.00
2023-12-12T01:27:53.785Z,1251.00
2023-12-12T01:28:53.667Z,1251.00
2023-12-12T01:29:53.609Z,1249.00
2023-12-12T01:30:53.590Z,1246.00
2023-12-12T01:31:53.521Z,1246.00
2023-12-12T01:32:53.492Z,1245.00
2023-12-12T01:33:53.426Z,1245.00
2023-12-12T01:34:53.405Z,1246.00
2023-12-12T01:35:53.287Z,1246.00
2023-12-12T01:36:53.263Z,1241.00
2023-12-12T01:37:53.178Z,1236.00
2023-12-12T01:38:53.083Z,1236.00
2023-12-12T01:39:53.064Z,1238.00
2023-12-12T01:40:52.984Z,1239.00
2023-12-12T01:41:52.970Z,1240.00
2023-12-12T01:42:52.909Z,1239.00
2023-12-12T01:43:52.788Z,1241.00
2023-12-12T01:44:52.714Z,1238.00
2023-12-12T01:45:52.673Z,1233.00
2023-12-12T01:46:52.580Z,1230.00
2023-12-12T01:47:52.606Z,1229.00
2023-12-12T01:48:52.585Z,1227.00
2023-12-12T01:49:52.448Z,1225.00
2023-12-12T01:50:52.332Z,1224.00
2023-12-12T01:51:52.376Z,1227.00
2023-12-12T01:52:52.217Z,1225.00
2023-12-12T01:53:52.173Z,1222.00
2023-12-12T01:54:52.167Z,1221.00
2023-12-12T01:55:52.019Z,1218.00
2023-12-12T01:56:51.986Z,1215.00
2023-12-12T01:57:52.031Z,1214.00
2023-12-12T01:58:51.878Z,1214.00
2023-12-12T01:59:51.803Z,1213.00
2023-12-12T02:00:51.791Z,1212.00
2023-12-12T02:01:51.762Z,1208.00
2023-12-12T02:02:51.609Z,1207.00
2023-12-12T02:03:51.636Z,1206.00
2023-12-12T02:04:51.639Z,1204.00
2023-12-12T02:05:51.587Z,1207.00
2023-12-12T02:06:51.438Z,1210.00
2023-12-12T02:07:51.326Z,1210.00
2023-12-12T02:08:51.257Z,1208.00
2023-12-12T02:09:51.205Z,1208.00
2023-12-12T02:10:51.144Z,1205.00
2023-12-12T02:11:51.054Z,1205.00
2023-12-12T02:12:51.019Z,1201.00
2023-12-12T02:13:50.975Z,1205.00
2023-12-12T02:14:50.921Z,1204.00
2023-12-12T02:15:50.868Z,1201.00
2023-12-12T02:16:50.777Z,1201.00
2023-12-12T02:17:50.800Z,1199.00
2023-12-12T02:18:50.758Z,1199.00
2023-12-12T02:19:50.678Z,1199.00
2023-12-12T02:20:50.560Z,1197.00
2023-12-12T02:21:50.548Z,1195.00
2023-12-12T02:22:50.431Z,1193.00
2023-12-12T02:23:50.386Z,1193.00
2023-12-12T02:24:50.354Z,1190.00
2023-12-12T02:25:50.302Z,1189.00
2023-12-12T02:26:50.223Z,1190.00
2023-12-12T02:27:50.107Z,1189.00
2023-12-12T02:28:50.044Z,1187.00
2023-12-12T02:29:49.972Z,1185.00
2023-12-12T02:30:49.988Z,1184.00
2023-12-12T02:31:49.862Z,1184.00
2023-12-12T02:32:49.930Z,1183.00
2023-12-12T02:33:49.794Z,1183.00
2023-12-12T02:34:49.682Z,1181.00
2023-12-12T02:35:49.629Z,1177.00
2023-12-12T02:36:49.630Z,1173.00
2023-12-12T02:37:49.488Z,1170.00
2023-12-12T02:38:49.447Z,1168.00
2023-12-12T02:39:49.359Z,1170.00
2023-12-12T02:40:49.277Z,1171.00
2023-12-12T02:41:49.239Z,1171.00
2023-12-12T02:42:49.162Z,1165.00
2023-12-12T02:43:49.116Z,1159.00
2023-12-12T02:44:49.017Z,1154.00
2023-12-12T02:45:48.972Z,1156.00
2023-12-12T02:46:48.935Z,1157.00
2023-12-12T02:47:48.990Z,1156.00
2023-12-12T02:48:48.836Z,1154.00
2023-12-12T02:49:48.847Z,1152.00
2023-12-12T02:50:48.639Z,1153.00
2023-12-12T02:51:48.591Z,1152.00
2023-12-12T02:52:48.531Z,1153.00
2023-12-12T02:53:48.483Z,1152.00
2023-12-12T02:54:48.393Z,1153.00
2023-12-12T02:55:48.337Z,1153.00
2023-12-12T02:56:48.284Z,1153.00
2023-12-12T02:57:48.192Z,1150.00
2023-12-12T02:58:48.153Z,1150.00
2023-12-12T02:59:48.046Z,1146.00
2023-12-12T03:00:48.041Z,1148.00
2023-12-12T03:01:47.988Z,1149.00
2023-12-12T03:02:47.864Z,1148.00
2023-12-12T03:03:47.829Z,1146.00
2023-12-12T03:04:47.867Z,1147.00
2023-12-12T03:05:47.764Z,1144.00
2023-12-12T03:06:47.644Z,1142.00
2023-12-12T03:07:47.584Z,1141.00
2023-12-12T03:08:47.495Z,1143.00
2023-12-12T03:09:47.443Z,1137.00
2023-12-12T03:10:47.384Z,1137.00
2023-12-12T03:11:47.396Z,1137.00
2023-12-12T03:12:47.323Z,1141.00
2023-12-12T03:13:47.256Z,1141.00
2023-12-12T03:14:47.252Z,1143.00
2023-12-12T03:15:47.233Z,1143.00
2023-12-12T03:16:47.201Z,1139.00
2023-12-12T03:17:47.296Z,1137.00
2023-12-12T03:18:47.128Z,1132.00
2023-12-12T03:19:47.052Z,1129.00
2023-12-12T03:20:46.919Z,1129.00
2023-12-12T03:21:46.896Z,1128.00
2023-12-12T03:22:46.802Z,1129.00
2023-12-12T03:23:46.758Z,1127.00
2023-12-12T03:24:46.727Z,1121.00
2023-12-12T03:25:46.665Z,1118.00
2023-12-12T03:26:46.630Z,1115.00
2023-12-12T03:27:46.577Z,1117.00
2023-12-12T03:28:46.540Z,1117.00
2023-12-12T03:29:46.516Z,1115.00
2023-12-12T03:30:46.431Z,1113.00
2023-12-12T03:31:46.420Z,1113.00
2023-12-12T03:32:46.444Z,1114.00
2023-12-12T03:33:46.345Z,1113.00
2023-12-12T03:34:46.330Z,1112.00
2023-12-12T03:35:46.221Z,1113.00
2023-12-12T03:36:46.182Z,1111.00
2023-12-12T03:37:46.161Z,1111.00
2023-12-12T03:38:46.061Z,1109.00
2023-12-12T03:39:46.012Z,1112.00
2023-12-12T03:40:45.936Z,1111.00
2023-12-12T03:41:45.957Z,1110.00
2023-12-12T03:42:45.877Z,1112.00
2023-12-12T03:43:45.894Z,1111.00
2023-12-12T03:44:45.793Z,1108.00
2023-12-12T03:45:45.774Z,1108.00
2023-12-12T03:46:45.753Z,1107.00
2023-12-12T03:47:45.659Z,1105.00
2023-12-12T03:48:45.640Z,1105.00
2023-12-12T03:49:45.688Z,1103.00
2023-12-12T03:50:45.523Z,1100.00
2023-12-12T03:51:45.458Z,1100.00
2023-12-12T03:52:45.399Z,1098.00
2023-12-12T03:53:45.339Z,1098.00
2023-12-12T03:54:45.351Z,1098.00
2023-12-12T03:55:45.247Z,1100.00
2023-12-12T03:56:45.236Z,1100.00
2023-12-12T03:57:45.195Z,1103.00
2023-12-12T03:58:45.100Z,1104.00
2023-12-12T03:59:45.139Z,1102.00
2023-12-12T04:00:45.046Z,1102.00
2023-12-12T04:01:45.156Z,1102.00
2023-12-12T04:02:44.980Z,1099.00
2023-12-12T04:03:44.887Z,1097.00
2023-12-12T04:04:44.896Z,1094.00
2023-12-12T04:05:44.860Z,1092.00
2023-12-12T04:06:44.778Z,1092.00
2023-12-12T04:07:44.769Z,1093.00
2023-12-12T04:08:44.660Z,1088.00
2023-12-12T04:09:44.592Z,1081.00
2023-12-12T04:10:44.576Z,1079.00
2023-12-12T04:11:44.504Z,1081.00
2023-12-12T04:12:44.446Z,1076.00
2023-12-12T04:13:44.428Z,1075.00
2023-12-12T04:14:44.376Z,1075.00
2023-12-12T04:15:44.290Z,1078.00
2023-12-12T04:16:44.330Z,1078.00
2023-12-12T04:17:44.402Z,1078.00
2023-12-12T04:18:44.280Z,1080.00
2023-12-12T04:19:44.203Z,1078.00
2023-12-12T04:20:44.103Z,1083.00
2023-12-12T04:21:44.054Z,1080.00
2023-12-12T04:22:44.030Z,1081.00
2023-12-12T04:23:44.298Z,1079.00
2023-12-12T04:24:43.980Z,1079.00
2023-12-12T04:25:44.037Z,1079.00
2023-12-12T04:26:43.926Z,1079.00
2023-12-12T04:27:43.816Z,1073.00
2023-12-12T04:28:43.764Z,1074.00
2023-12-12T04:29:43.737Z,1070.00
2023-12-12T04:30:43.647Z,1070.00
2023-12-12T04:31:43.665Z,1070.00
2023-12-12T04:32:43.637Z,1072.00
2023-12-12T04:33:43.595Z,1072.00
2023-12-12T04:34:43.575Z,1073.00
2023-12-12T04:35:43.464Z,1071.00
2023-12-12T04:36:43.421Z,1067.00
2023-12-12T04:37:43.379Z,1063.00
2023-12-12T04:38:43.351Z,1062.00
2023-12-12T04:39:43.286Z,1064.00
2023-12-12T04:40:43.296Z,1061.00
2023-12-12T04:41:43.201Z,1060.00
2023-12-12T04:42:43.155Z,1058.00
2023-12-12T04:43:43.131Z,1059.00
2023-12-12T04:44:43.065Z,1057.00
2023-12-12T04:45:43.007Z,1056.00
2023-12-12T04:46:43.425Z,1056.00
2023-12-12T04:47:42.964Z,1054.00
2023-12-12T04:48:42.953Z,1055.00
2023-12-12T04:49:42.931Z,1056.00
2023-12-12T04:50:42.741Z,1053.00
2023-12-12T04:51:42.735Z,1053.00
2023-12-12T04:52:50.094Z,1044.00
2023-12-12T04:53:50.095Z,1043.00
2023-12-12T04:54:50.077Z,1047.00
2023-12-12T04:55:50.085Z,1049.00
2023-12-12T04:56:50.054Z,1046.00
2023-12-12T04:57:50.028Z,1046.00
2023-12-12T04:58:50.054Z,1044.00
2023-12-12T04:59:50.030Z,1040.00
2023-12-12T05:00:50.020Z,1042.00
2023-12-12T05:01:50.055Z,1042.00
2023-12-12T05:02:50.029Z,1045.00
2023-12-12T05:03:50.023Z,1043.00
2023-12-12T05:04:49.969Z,1045.00
2023-12-12T05:05:50.124Z,1045.00
2023-12-12T05:06:50.004Z,1045.00
2023-12-12T05:07:50.010Z,1045.00
2023-12-12T05:08:49.928Z,1047.00
2023-12-12T05:09:49.922Z,1044.00
2023-12-12T05:10:49.930Z,1044.00
2023-12-12T05:11:49.879Z,1043.00
2023-12-12T05:12:49.939Z,1045.00
2023-12-12T05:13:49.991Z,1038.00
2023-12-12T05:14:49.849Z,1036.00
2023-12-12T05:15:49.902Z,1036.00
2023-12-12T05:16:57.993Z,1039.00
2023-12-12T05:17:50.953Z,1039.00
2023-12-12T05:18:49.890Z,1039.00
2023-12-12T05:19:49.893Z,1038.00
2023-12-12T05:20:49.788Z,1038.00
2023-12-12T05:21:49.779Z,1040.00
2023-12-12T05:22:49.786Z,1042.00
2023-12-12T05:23:49.765Z,1043.00
2023-12-12T05:24:49.761Z,1041.00
2023-12-12T05:25:49.766Z,1038.00
2023-12-12T05:26:49.712Z,1037.00
2023-12-12T05:27:49.725Z,1036.00
2023-12-12T05:28:49.694Z,1033.00
2023-12-12T05:29:49.736Z,1034.00
2023-12-12T05:30:49.803Z,1033.00
2023-12-12T05:31:49.838Z,1029.00
2023-12-12T05:32:49.827Z,1027.00
2023-12-12T05:33:49.967Z,1025.00
2023-12-12T05:34:49.949Z,1026.00
2023-12-12T05:35:49.875Z,1025.00
2023-12-12T05:36:49.949Z,1028.00
2023-12-12T05:37:50.003Z,1028.00
2023-12-12T05:38:50.020Z,1027.00
2023-12-12T05:39:50.033Z,1026.00
2023-12-12T05:40:50.061Z,1023.00
2023-12-12T05:41:50.092Z,1019.00
2023-12-12T05:42:50.159Z,1016.00
2023-12-12T05:43:50.129Z,1014.00
2023-12-12T05:44:50.294Z,1014.00
2023-12-12T05:45:50.243Z,1014.00
2023-12-12T05:46:50.258Z,1012.00
2023-12-12T05:47:50.332Z,1008.00
2023-12-12T05:48:50.340Z,1008.00
2023-12-12T05:49:50.404Z,1010.00
2023-12-12T05:50:50.316Z,1008.00
2023-12-12T05:51:50.349Z,1008.00
2023-12-12T05:52:50.438Z,1006.00
2023-12-12T05:53:50.437Z,1006.00
2023-12-12T05:54:50.500Z,1006.00
2023-12-12T05:55:50.430Z,1004.00
2023-12-12T05:56:50.496Z,1006.00
2023-12-12T05:57:50.489Z,1004.00
2023-12-12T05:58:50.503Z,1004.00
2023-12-12T05:59:50.529Z,1004.00
2023-12-12T06:00:50.584Z,1005.00
2023-12-12T06:01:50.615Z,1004.00
2023-12-12T06:02:50.569Z,1005.00
2023-12-12T06:03:50.706Z,1006.00
2023-12-12T06:04:50.713Z,1007.00
2023-12-12T06:05:50.646Z,1006.00
2023-12-12T06:06:50.771Z,1001.00
2023-12-12T06:07:50.700Z,1002.00
2023-12-12T06:08:50.674Z,1006.00
2023-12-12T06:09:50.720Z,1008.00
2023-12-12T06:10:50.786Z,1008.00
2023-12-12T06:11:50.757Z,1007.00
2023-12-12T06:12:50.715Z,1004.00
2023-12-12T06:13:50.761Z,1003.00
2023-12-12T06:14:50.741Z,998.00
2023-12-12T06:15:50.749Z,999.00
2023-12-12T06:16:50.777Z,996.00
2023-12-12T06:17:50.832Z,995.00
2023-12-12T06:18:50.829Z,995.00
2023-12-12T06:19:50.946Z,992.00
2023-12-12T06:20:50.783Z,991.00
2023-12-12T06:21:50.821Z,991.00
2023-12-12T06:22:50.852Z,989.00
2023-12-12T06:23:50.833Z,991.00
2023-12-12T06:24:50.855Z,992.00
2023-12-12T06:25:50.904Z,991.00
2023-12-12T06:26:50.867Z,990.00
2023-12-12T06:27:50.878Z,989.00
2023-12-12T06:28:50.880Z,988.00
2023-12-12T06:29:50.900Z,984.00
2023-12-12T06:30:50.926Z,985.00
2023-12-12T06:31:51.003Z,984.00
2023-12-12T06:32:51.114Z,983.00
2023-12-12T06:33:51.022Z,982.00
2023-12-12T06:34:50.893Z,979.00
2023-12-12T06:35:54.403Z,976.00
2023-12-12T06:36:50.854Z,975.00
2023-12-12T06:37:50.941Z,974.00
2023-12-12T06:38:50.861Z,977.00
2023-12-12T06:39:50.859Z,976.00
2023-12-12T06:40:50.868Z,974.00
2023-12-12T06:41:51.836Z,976.00
2023-12-12T06:42:50.838Z,975.00
2023-12-12T06:43:50.793Z,978.00
2023-12-12T06:44:50.777Z,977.00
2023-12-12T06:45:50.803Z,978.00
2023-12-12T06:46:50.849Z,978.00
2023-12-12T06:47:50.875Z,980.00
2023-12-12T06:48:50.791Z,982.00
2023-12-12T06:49:50.812Z,981.00
2023-12-12T06:50:50.776Z,987.00
2023-12-12T06:51:50.825Z,993.00
2023-12-12T06:52:50.735Z,996.00
2023-12-12T06:53:53.311Z,998.00
2023-12-12T06:54:50.918Z,998.00
2023-12-12T06:55:50.887Z,998.00
2023-12-12T06:56:50.901Z,1107.00
2023-12-12T06:57:50.956Z,1182.00
2023-12-12T06:58:50.966Z,1086.00
2023-12-12T06:59:50.977Z,1087.00
2023-12-12T07:00:51.030Z,1095.00
2023-12-12T07:01:51.011Z,1103.00
2023-12-12T07:02:51.025Z,1108.00
2023-12-12T07:03:51.011Z,1112.00
2023-12-12T07:04:51.070Z,1117.00
2023-12-12T07:05:51.099Z,1128.00
2023-12-12T07:06:51.109Z,1162.00
2023-12-12T07:07:51.041Z,1187.00
2023-12-12T07:08:52.106Z,1188.00
2023-12-12T07:09:59.272Z,1190.00
2023-12-12T07:10:52.027Z,1243.00
2023-12-12T07:11:51.017Z,1331.00
2023-12-12T07:12:51.260Z,1332.00
2023-12-12T07:13:51.020Z,1337.00
2023-12-12T07:14:51.151Z,1346.00
2023-12-12T07:15:50.978Z,1365.00
2023-12-12T07:16:50.982Z,1376.00
2023-12-12T07:17:50.978Z,1399.00
2023-12-12T07:18:51.013Z,1418.00
2023-12-12T07:19:51.084Z,1421.00
2023-12-12T07:20:50.917Z,1427.00
2023-12-12T07:21:50.911Z,1429.00
2023-12-12T07:22:50.907Z,1441.00
2023-12-12T07:23:50.904Z,1495.00
2023-12-12T07:24:50.911Z,1524.00
2023-12-12T07:25:50.936Z,1524.00
2023-12-12T07:26:50.999Z,1523.00
2023-12-12T07:27:51.088Z,1533.00
2023-12-12T07:28:51.144Z,1550.00
2023-12-12T07:29:51.077Z,1621.00
2023-12-12T07:30:51.080Z,1631.00
2023-12-12T07:31:51.184Z,1640.00
2023-12-12T07:32:51.301Z,1646.00
2023-12-12T07:33:51.322Z,1665.00
2023-12-12T07:34:51.331Z,1674.00
2023-12-12T07:35:51.405Z,1690.00
2023-12-12T07:36:51.443Z,1721.00
2023-12-12T07:37:51.651Z,1732.00
2023-12-12T07:38:51.547Z,1742.00
2023-12-12T07:39:51.603Z,1755.00
2023-12-12T07:40:51.762Z,1779.00
2023-12-12T07:41:52.041Z,1812.00
2023-12-12T07:42:51.777Z,1865.00
2023-12-12T07:43:51.836Z,1870.00
2023-12-12T07:44:51.962Z,1862.00
2023-12-12T07:45:52.104Z,1858.00
2023-12-12T07:46:52.020Z,1872.00
2023-12-12T07:47:52.533Z,1898.00
2023-12-12T07:48:52.249Z,1932.00
2023-12-12T07:49:52.243Z,1936.00
2023-12-12T07:50:52.270Z,1947.00
2023-12-12T07:51:52.340Z,2026.00
2023-12-12T07:52:52.515Z,2017.00
2023-12-12T07:53:52.391Z,2024.00
2023-12-12T07:54:52.597Z,2046.00
2023-12-12T07:55:52.533Z,2050.00
2023-12-12T07:56:52.594Z,2054.00
2023-12-12T07:57:52.683Z,2064.00
2023-12-12T07:58:52.756Z,2072.00
2023-12-12T07:59:54.298Z,2126.00
2023-12-12T08:00:52.850Z,2141.00
2023-12-12T08:01:53.023Z,2141.00
2023-12-12T08:02:52.922Z,2156.00
2023-12-12T08:03:53.030Z,2168.00
2023-12-12T08:04:53.071Z,2182.00
2023-12-12T08:05:53.142Z,2204.00
2023-12-12T08:06:53.170Z,2217.00
2023-12-12T08:07:53.234Z,2231.00
2023-12-12T08:08:53.243Z,2236.00
2023-12-12T08:09:53.355Z,2250.00
2023-12-12T08:10:53.387Z,2257.00
2023-12-12T08:11:53.453Z,2259.00
2023-12-12T08:12:53.474Z,2269.00
2023-12-12T08:13:53.762Z,2293.00
2023-12-12T08:14:53.584Z,2303.00
2023-12-12T08:15:53.640Z,2311.00
2023-12-12T08:16:53.714Z,2321.00
2023-12-12T08:17:53.955Z,2324.00
2023-12-12T08:18:53.847Z,2329.00
2023-12-12T08:19:53.973Z,2332.00
2023-12-12T08:21:19.070Z,2339.00
2023-12-12T08:21:53.953Z,2353.00
2023-12-12T08:22:53.911Z,2395.00
2023-12-12T08:23:54.113Z,2422.00
2023-12-12T08:24:54.128Z,2437.00
2023-12-12T08:25:53.841Z,2440.00
2023-12-12T08:26:53.837Z,2442.00
2023-12-12T08:27:53.844Z,2452.00
2023-12-12T08:28:53.854Z,2454.00
2023-12-12T08:29:53.811Z,2449.00
2023-12-12T08:30:53.883Z,2451.00
2023-12-12T08:31:53.856Z,2455.00
2023-12-12T08:32:53.921Z,2474.00
2023-12-12T08:33:53.780Z,2494.00
2023-12-12T08:34:53.811Z,2510.00
2023-12-12T08:35:53.748Z,2542.00
2023-12-12T08:36:53.753Z,2567.00
2023-12-12T08:37:53.698Z,2582.00
2023-12-12T08:38:53.759Z,2589.00
2023-12-12T08:39:53.679Z,2606.00
2023-12-12T08:40:57.528Z,2618.00
2023-12-12T08:41:53.691Z,2620.00
2023-12-12T08:42:53.611Z,2630.00
2023-12-12T08:43:53.560Z,2693.00
2023-12-12T08:44:53.573Z,2681.00
2023-12-12T08:45:53.534Z,2679.00
2023-12-12T08:46:53.520Z,2683.00
2023-12-12T08:47:53.546Z,2674.00
2023-12-12T08:48:53.510Z,2669.00
2023-12-12T08:49:53.581Z,2666.00
2023-12-12T08:50:53.470Z,2673.00
2023-12-12T08:51:53.472Z,2678.00
2023-12-12T08:52:53.436Z,2682.00
2023-12-12T08:53:53.436Z,2682.00
2023-12-12T08:54:53.395Z,2686.00
2023-12-12T08:55:53.400Z,2695.00
2023-12-12T08:56:53.400Z,2694.00
2023-12-12T08:57:53.412Z,2695.00
2023-12-12T08:58:53.475Z,2695.00
2023-12-12T08:59:53.436Z,2691.00
2023-12-12T09:00:53.428Z,2695.00
2023-12-12T09:01:53.413Z,2691.00
2023-12-12T09:02:53.348Z,2692.00
2023-12-12T09:03:53.304Z,2693.00
2023-12-12T09:04:53.366Z,2689.00
2023-12-12T09:05:53.426Z,2684.00
2023-12-12T09:06:53.465Z,2683.00
2023-12-12T09:07:53.537Z,2681.00
2023-12-12T09:08:54.332Z,2685.00
2023-12-12T09:09:53.582Z,2682.00
2023-12-12T09:10:53.626Z,2681.00
2023-12-12T09:11:53.641Z,2677.00
2023-12-12T09:12:53.672Z,2673.00
2023-12-12T09:13:53.699Z,2667.00
2023-12-12T09:14:53.752Z,2669.00
2023-12-12T09:15:53.751Z,2673.00
2023-12-12T09:16:53.790Z,2673.00
2023-12-12T09:18:05.912Z,2668.00
2023-12-12T09:18:54.990Z,2662.00
2023-12-12T09:19:54.085Z,2661.00
2023-12-12T09:20:54.013Z,2657.00
2023-12-12T09:21:53.920Z,2651.00
2023-12-12T09:22:53.856Z,2644.00
2023-12-12T09:23:53.783Z,2639.00
2023-12-12T09:24:53.745Z,2638.00
2023-12-12T09:25:53.761Z,2632.00
2023-12-12T09:26:53.751Z,2630.00
2023-12-12T09:27:53.687Z,2629.00
2023-12-12T09:28:53.691Z,2631.00
2023-12-12T09:29:55.916Z,2635.00
2023-12-12T09:30:53.800Z,2629.00
2023-12-12T09:31:53.670Z,2628.00
2023-12-12T09:32:53.756Z,2626.00
2023-12-12T09:33:53.731Z,2620.00
2023-12-12T09:34:53.680Z,2618.00
2023-12-12T09:35:53.671Z,2613.00
2023-12-12T09:36:53.702Z,2614.00
2023-12-12T09:37:53.724Z,2615.00
2023-12-12T09:38:53.695Z,2611.00
2023-12-12T09:39:53.692Z,2609.00
2023-12-12T09:40:53.694Z,2602.00
2023-12-12T09:41:53.666Z,2599.00
2023-12-12T09:42:53.690Z,2601.00
2023-12-12T09:43:53.686Z,2599.00
2023-12-12T09:44:53.702Z,2596.00
2023-12-12T09:45:53.704Z,2594.00
2023-12-12T09:46:53.714Z,2594.00
2023-12-12T09:47:53.736Z,2590.00
2023-12-12T09:48:54.169Z,2588.00
2023-12-12T09:49:53.721Z,2584.00
2023-12-12T09:50:53.671Z,2584.00
2023-12-12T09:51:53.730Z,2585.00
2023-12-12T09:52:53.715Z,2579.00
2023-12-12T09:53:53.699Z,2576.00
2023-12-12T09:54:53.694Z,2574.00
2023-12-12T09:55:53.731Z,2575.00
2023-12-12T09:56:53.720Z,2574.00
2023-12-12T09:57:53.739Z,2572.00
2023-12-12T09:58:53.735Z,2572.00
2023-12-12T09:59:53.723Z,2570.00
2023-12-12T10:00:53.770Z,2565.00
2023-12-12T10:01:53.784Z,2559.00
2023-12-12T10:02:53.725Z,2550.00
2023-12-12T10:03:53.717Z,2546.00
2023-12-12T10:04:53.718Z,2547.00
2023-12-12T10:05:53.801Z,2545.00
2023-12-12T10:06:53.741Z,2545.00
2023-12-12T10:08:00.325Z,2540.00
2023-12-12T10:08:54.749Z,2537.00
2023-12-12T10:09:53.755Z,2536.00
2023-12-12T10:10:53.837Z,2536.00
2023-12-12T10:11:53.740Z,2532.00
2023-12-12T10:12:53.732Z,2528.00
2023-12-12T10:13:53.743Z,2529.00
2023-12-12T10:14:53.735Z,2528.00
2023-12-12T10:15:53.720Z,2532.00
2023-12-12T10:16:53.742Z,2532.00
2023-12-12T10:17:53.793Z,2526.00
2023-12-12T10:18:53.765Z,2521.00
2023-12-12T10:19:53.883Z,2522.00
2023-12-12T10:20:53.820Z,2521.00
2023-12-12T10:21:53.706Z,2517.00
2023-12-12T10:22:53.845Z,2512.00
2023-12-12T10:23:53.809Z,2510.00
2023-12-12T10:24:53.670Z,2513.00
2023-12-12T10:25:53.701Z,2513.00
2023-12-12T10:26:53.756Z,2510.00
2023-12-12T10:27:53.676Z,2503.00
2023-12-12T10:28:53.655Z,2500.00
2023-12-12T10:29:53.704Z,2501.00
2023-12-12T10:30:53.855Z,2500.00
2023-12-12T10:31:53.672Z,2499.00
2023-12-12T10:32:53.660Z,2498.00
2023-12-12T10:33:53.683Z,2495.00
2023-12-12T10:34:53.786Z,2492.00
2023-12-12T10:35:53.678Z,2488.00
2023-12-12T10:36:53.648Z,2485.00
2023-12-12T10:37:53.744Z,2484.00
2023-12-12T10:38:53.691Z,2494.00
2023-12-12T10:39:53.628Z,2493.00
2023-12-12T10:40:53.690Z,2491.00
2023-12-12T10:42:15.646Z,2496.00
2023-12-12T10:42:53.627Z,2501.00
2023-12-12T10:43:54.544Z,2499.00
2023-12-12T10:44:53.591Z,2498.00
2023-12-12T10:45:53.561Z,2572.00
2023-12-12T10:46:53.546Z,2531.00
2023-12-12T10:47:53.580Z,2544.00
2023-12-12T10:48:53.902Z,2551.00
2023-12-12T10:49:53.576Z,2553.00
2023-12-12T10:50:53.551Z,2576.00
2023-12-12T10:51:53.520Z,2601.00
2023-12-12T10:52:53.991Z,2607.00
2023-12-12T10:53:53.482Z,2603.00
2023-12-12T10:54:53.502Z,2651.00
2023-12-12T10:55:53.478Z,2674.00
2023-12-12T10:56:53.471Z,2680.00
2023-12-12T10:57:53.484Z,2677.00
2023-12-12T10:58:53.488Z,2694.00
2023-12-12T11:00:00.055Z,2728.00
2023-12-12T11:00:54.504Z,2761.00
2023-12-12T11:01:53.482Z,2775.00
2023-12-12T11:03:02.465Z,2791.00
2023-12-12T11:03:53.440Z,2798.00
2023-12-12T11:04:53.392Z,2803.00
2023-12-12T11:05:53.402Z,2809.00
2023-12-12T11:06:53.353Z,2820.00
2023-12-12T11:07:53.355Z,2835.00
2023-12-12T11:08:53.317Z,2849.00
2023-12-12T11:09:53.341Z,2865.00
2023-12-12T11:10:53.287Z,2866.00
2023-12-12T11:11:53.270Z,2869.00
2023-12-12T11:12:53.270Z,2872.00
2023-12-12T11:13:53.240Z,2877.00
2023-12-12T11:14:53.213Z,2907.00
2023-12-12T11:15:53.217Z,2931.00
2023-12-12T11:16:53.241Z,2942.00
2023-12-12T11:17:53.237Z,2950.00
2023-12-12T11:18:53.200Z,2996.00
2023-12-12T11:19:53.245Z,3023.00
2023-12-12T11:20:53.268Z,3028.00
2023-12-12T11:21:53.149Z,3040.00
2023-12-12T11:22:53.401Z,3049.00
2023-12-12T11:23:53.099Z,3051.00
2023-12-12T11:24:53.053Z,3063.00
2023-12-12T11:25:53.137Z,3082.00
2023-12-12T11:26:53.039Z,3092.00
2023-12-12T11:27:53.074Z,3109.00
2023-12-12T11:28:53.059Z,3126.00
2023-12-12T11:29:53.033Z,3122.00
2023-12-12T11:30:53.000Z,3154.00
2023-12-12T11:31:53.108Z,3163.00
2023-12-12T11:32:53.602Z,3171.00
2023-12-12T11:33:53.119Z,3177.00
2023-12-12T11:34:52.965Z,3180.00
2023-12-12T11:35:53.091Z,3184.00
2023-12-12T11:36:52.958Z,3191.00
2023-12-12T11:37:52.889Z,3201.00
2023-12-12T11:38:52.872Z,3208.00
2023-12-12T11:39:52.868Z,3213.00
2023-12-12T11:40:52.843Z,3219.00
2023-12-12T11:41:52.867Z,3240.00
2023-12-12T11:42:52.826Z,3252.00
2023-12-12T11:43:52.792Z,3324.00
2023-12-12T11:44:52.788Z,3370.00
2023-12-12T11:45:52.787Z,3370.00
2023-12-12T11:46:52.735Z,3376.00
2023-12-12T11:47:52.802Z,3386.00
2023-12-12T11:48:52.772Z,3426.00
2023-12-12T11:49:52.706Z,3431.00
2023-12-12T11:50:52.683Z,3435.00
2023-12-12T11:51:52.662Z,3431.00
2023-12-12T11:52:52.726Z,3440.00
2023-12-12T11:53:52.651Z,3467.00
2023-12-12T11:54:52.620Z,3499.00
2023-12-12T11:55:52.581Z,3516.00
2023-12-12T11:56:52.598Z,3524.00
2023-12-12T11:57:52.658Z,3533.00
2023-12-12T11:58:52.695Z,3556.00
2023-12-12T11:59:52.700Z,3572.00
2023-12-12T12:00:52.778Z,3586.00
2023-12-12T12:01:52.769Z,3630.00
2023-12-12T12:02:52.816Z,3661.00
2023-12-12T12:03:52.838Z,3661.00
2023-12-12T12:04:52.806Z,3659.00
2023-12-12T12:05:52.910Z,3675.00
2023-12-12T12:06:52.897Z,3677.00
2023-12-12T12:07:52.930Z,3689.00